createdAt,value
2019-01-09T00:00:39.005Z,932.39
2019-01-09T00:01:38.895Z,932.37
2019-01-09T00:02:39.038Z,932.37
2019-01-09T00:03:39.152Z,932.34
2019-01-09T00:04:39.078Z,932.36
2019-01-09T00:05:38.966Z,932.35
2019-01-09T00:06:38.983Z,932.36
2019-01-09T00:07:39.015Z,932.36
2019-01-09T00:08:39.168Z,932.38
2019-01-09T00:09:39.059Z,932.39
2019-01-09T00:10:39.067Z,932.38
2019-01-09T00:11:39.064Z,932.40
2019-01-09T00:12:39.095Z,932.37
2019-01-09T00:13:39.231Z,932.37
2019-01-09T00:14:39.217Z,932.38
2019-01-09T00:15:39.277Z,932.39
2019-01-09T00:16:39.163Z,932.39
2019-01-09T00:17:39.182Z,932.39
2019-01-09T00:18:39.195Z,932.37
2019-01-09T00:19:39.267Z,932.39
2019-01-09T00:20:39.353Z,932.40
2019-01-09T00:21:39.253Z,932.39
2019-01-09T00:22:39.537Z,932.41
2019-01-09T00:23:39.333Z,932.41
2019-01-09T00:24:39.307Z,932.39
2019-01-09T00:25:39.357Z,932.35
2019-01-09T00:26:39.346Z,932.35
2019-01-09T00:27:39.524Z,932.35
2019-01-09T00:28:39.494Z,932.30
2019-01-09T00:29:39.384Z,932.29
2019-01-09T00:30:39.504Z,932.30
2019-01-09T00:31:39.547Z,932.26
2019-01-09T00:32:39.454Z,932.20
2019-01-09T00:33:39.453Z,932.16
2019-01-09T00:34:39.480Z,932.17
2019-01-09T00:35:39.715Z,932.11
2019-01-09T00:36:39.523Z,932.15
2019-01-09T00:37:39.656Z,932.10
2019-01-09T00:38:40.654Z,932.12
2019-01-09T00:39:39.685Z,932.11
2019-01-09T00:40:39.725Z,932.12
2019-01-09T00:41:39.611Z,932.10
2019-01-09T00:42:39.736Z,932.16
2019-01-09T00:43:39.643Z,932.16
2019-01-09T00:44:39.646Z,932.19
2019-01-09T00:45:39.891Z,932.20
2019-01-09T00:46:39.690Z,932.25
2019-01-09T00:47:39.707Z,932.30
2019-01-09T00:48:39.715Z,932.31
2019-01-09T00:49:39.744Z,932.34
2019-01-09T00:50:39.752Z,932.30
2019-01-09T00:51:39.879Z,932.29
2019-01-09T00:52:39.809Z,932.29
2019-01-09T00:53:39.856Z,932.26
2019-01-09T00:54:39.949Z,932.26
2019-01-09T00:55:39.848Z,932.23
2019-01-09T00:56:39.912Z,932.22
2019-01-09T00:57:39.880Z,932.18
2019-01-09T00:58:39.897Z,932.20
2019-01-09T00:59:40.136Z,932.20
2019-01-09T01:00:40.053Z,932.22
2019-01-09T01:01:39.984Z,932.26
2019-01-09T01:02:40.041Z,932.32
2019-01-09T01:03:39.984Z,932.32
2019-01-09T01:04:40.109Z,932.33
2019-01-09T01:05:46.028Z,932.35
2019-01-09T01:06:40.079Z,932.35
2019-01-09T01:07:40.172Z,932.39
2019-01-09T01:08:40.076Z,932.38
2019-01-09T01:09:40.185Z,932.39
2019-01-09T01:10:40.129Z,932.39
2019-01-09T01:11:40.121Z,932.42
2019-01-09T01:12:40.138Z,932.43
2019-01-09T01:13:40.191Z,932.44
2019-01-09T01:14:40.222Z,932.42
2019-01-09T01:15:40.182Z,932.42
2019-01-09T01:16:40.209Z,932.46
2019-01-09T01:17:40.222Z,932.47
2019-01-09T01:18:40.366Z,932.50
2019-01-09T01:19:40.346Z,932.53
2019-01-09T01:20:40.270Z,932.57
2019-01-09T01:21:40.286Z,932.55
2019-01-09T01:22:40.292Z,932.58
2019-01-09T01:23:40.329Z,932.60
2019-01-09T01:24:40.437Z,932.63
2019-01-09T01:25:40.363Z,932.62
2019-01-09T01:26:40.388Z,932.62
2019-01-09T01:27:40.409Z,932.65
2019-01-09T01:28:40.537Z,932.67
2019-01-09T01:29:40.492Z,932.70
2019-01-09T01:30:40.440Z,932.71
2019-01-09T01:31:40.584Z,932.72
2019-01-09T01:32:40.597Z,932.77
2019-01-09T01:33:40.620Z,932.76
2019-01-09T01:34:40.738Z,932.80
2019-01-09T01:35:40.526Z,932.82
2019-01-09T01:36:40.671Z,932.83
2019-01-09T01:37:40.688Z,932.82
2019-01-09T01:38:40.705Z,932.82
2019-01-09T01:39:40.734Z,932.85
2019-01-09T01:40:40.628Z,932.81
2019-01-09T01:41:40.660Z,932.81
2019-01-09T01:42:40.668Z,932.80
2019-01-09T01:43:40.790Z,932.80
2019-01-09T01:44:40.782Z,932.78
2019-01-09T01:45:40.700Z,932.77
2019-01-09T01:46:40.730Z,932.78
2019-01-09T01:47:40.858Z,932.72
2019-01-09T01:48:40.759Z,932.74
2019-01-09T01:49:41.045Z,932.74
2019-01-09T01:50:40.790Z,932.74
2019-01-09T01:51:40.931Z,932.66
2019-01-09T01:52:40.817Z,932.68
2019-01-09T01:53:40.966Z,932.67
2019-01-09T01:54:40.980Z,932.66
2019-01-09T01:55:41.151Z,932.64
2019-01-09T01:56:40.907Z,932.62
2019-01-09T01:57:40.903Z,932.65
2019-01-09T01:58:41.053Z,932.65
2019-01-09T01:59:41.062Z,932.68
2019-01-09T02:00:41.061Z,932.65
2019-01-09T02:01:40.976Z,932.68
2019-01-09T02:02:41.001Z,932.67
2019-01-09T02:03:41.004Z,932.66
2019-01-09T02:04:41.025Z,932.66
2019-01-09T02:05:41.268Z,932.65
2019-01-09T02:06:41.076Z,932.65
2019-01-09T02:07:41.094Z,932.65
2019-01-09T02:08:41.110Z,932.70
2019-01-09T02:09:41.117Z,932.69
2019-01-09T02:10:41.243Z,932.69
2019-01-09T02:11:41.275Z,932.66
2019-01-09T02:12:41.154Z,932.68
2019-01-09T02:13:41.193Z,932.65
2019-01-09T02:14:41.324Z,932.68
2019-01-09T02:15:41.387Z,932.68
2019-01-09T02:16:41.238Z,932.69
2019-01-09T02:17:41.376Z,932.69
2019-01-09T02:18:41.265Z,932.72
2019-01-09T02:19:41.288Z,932.71
2019-01-09T02:20:41.521Z,932.66
2019-01-09T02:21:41.316Z,932.68
2019-01-09T02:22:41.336Z,932.67
2019-01-09T02:23:41.366Z,932.69
2019-01-09T02:24:41.366Z,932.69
2019-01-09T02:25:41.497Z,932.66
2019-01-09T02:26:41.409Z,932.63
2019-01-09T02:27:41.410Z,932.65
2019-01-09T02:28:41.561Z,932.65
2019-01-09T02:29:41.579Z,932.68
2019-01-09T02:30:41.527Z,932.71
2019-01-09T02:31:41.484Z,932.72
2019-01-09T02:32:41.520Z,932.72
2019-01-09T02:33:41.522Z,932.72
2019-01-09T02:34:41.535Z,932.74
2019-01-09T02:35:41.703Z,932.72
2019-01-09T02:36:41.571Z,932.74
2019-01-09T02:37:41.601Z,932.70
2019-01-09T02:38:41.657Z,932.72
2019-01-09T02:39:41.632Z,932.74
2019-01-09T02:40:41.780Z,932.71
2019-01-09T02:41:41.661Z,932.78
2019-01-09T02:42:41.798Z,932.74
2019-01-09T02:43:41.691Z,932.74
2019-01-09T02:44:41.828Z,932.73
2019-01-09T02:45:41.829Z,932.70
2019-01-09T02:46:41.864Z,932.64
2019-01-09T02:47:41.782Z,932.68
2019-01-09T02:48:41.776Z,932.67
2019-01-09T02:49:41.919Z,932.65
2019-01-09T02:50:41.810Z,932.67
2019-01-09T02:51:42.053Z,932.58
2019-01-09T02:52:41.838Z,932.60
2019-01-09T02:53:41.981Z,932.54
2019-01-09T02:54:41.880Z,932.52
2019-01-09T02:55:42.013Z,932.51
2019-01-09T02:56:41.998Z,932.47
2019-01-09T02:57:42.048Z,932.42
2019-01-09T02:58:42.062Z,932.40
2019-01-09T02:59:41.951Z,932.42
2019-01-09T03:00:42.101Z,932.37
2019-01-09T03:01:42.050Z,932.44
2019-01-09T03:02:42.002Z,932.36
2019-01-09T03:03:42.143Z,932.44
2019-01-09T03:04:42.057Z,932.43
2019-01-09T03:05:42.058Z,932.40
2019-01-09T03:06:42.225Z,932.35
2019-01-09T03:07:42.077Z,932.32
2019-01-09T03:08:42.097Z,932.29
2019-01-09T03:09:42.246Z,932.30
2019-01-09T03:10:42.133Z,932.29
2019-01-09T03:11:42.265Z,932.27
2019-01-09T03:12:42.160Z,932.28
2019-01-09T03:13:42.314Z,932.25
2019-01-09T03:14:42.323Z,932.24
2019-01-09T03:15:42.225Z,932.30
2019-01-09T03:16:42.407Z,932.27
2019-01-09T03:17:42.241Z,932.26
2019-01-09T03:18:42.277Z,932.27
2019-01-09T03:19:42.404Z,932.29
2019-01-09T03:20:42.296Z,932.28
2019-01-09T03:21:42.537Z,932.22
2019-01-09T03:22:42.329Z,932.23
2019-01-09T03:23:42.339Z,932.22
2019-01-09T03:24:42.487Z,932.16
2019-01-09T03:25:42.506Z,932.16
2019-01-09T03:26:42.491Z,932.15
2019-01-09T03:27:42.535Z,932.16
2019-01-09T03:28:42.553Z,932.13
2019-01-09T03:29:42.569Z,932.13
2019-01-09T03:30:42.586Z,932.13
2019-01-09T03:31:42.760Z,932.14
2019-01-09T03:32:42.491Z,932.16
2019-01-09T03:33:42.635Z,932.19
2019-01-09T03:34:42.532Z,932.24
2019-01-09T03:35:42.550Z,932.25
2019-01-09T03:36:42.764Z,932.30
2019-01-09T03:37:42.703Z,932.29
2019-01-09T03:38:42.596Z,932.29
2019-01-09T03:39:42.603Z,932.30
2019-01-09T03:40:42.631Z,932.27
2019-01-09T03:41:42.752Z,932.26
2019-01-09T03:42:42.657Z,932.26
2019-01-09T03:43:42.678Z,932.28
2019-01-09T03:44:42.811Z,932.23
2019-01-09T03:45:42.833Z,932.25
2019-01-09T03:46:42.964Z,932.22
2019-01-09T03:47:42.735Z,932.21
2019-01-09T03:48:42.766Z,932.21
2019-01-09T03:49:42.794Z,932.17
2019-01-09T03:50:42.822Z,932.18
2019-01-09T03:51:42.897Z,932.17
2019-01-09T03:52:42.818Z,932.14
2019-01-09T03:53:42.834Z,932.12
2019-01-09T03:54:42.857Z,932.14
2019-01-09T03:55:42.991Z,932.15
2019-01-09T03:56:42.887Z,932.12
2019-01-09T03:57:42.997Z,932.07
2019-01-09T03:58:42.912Z,932.09
2019-01-09T03:59:42.928Z,932.05
2019-01-09T04:00:42.966Z,932.03
2019-01-09T04:01:42.960Z,932.03
2019-01-09T04:02:43.261Z,932.01
2019-01-09T04:03:43.021Z,932.03
2019-01-09T04:04:43.138Z,931.99
2019-01-09T04:05:43.086Z,932.00
2019-01-09T04:06:43.053Z,931.98
2019-01-09T04:07:43.126Z,931.98
2019-01-09T04:08:43.199Z,931.99
2019-01-09T04:09:43.095Z,931.96
2019-01-09T04:10:43.144Z,931.97
2019-01-09T04:11:43.248Z,931.97
2019-01-09T04:12:43.265Z,931.97
2019-01-09T04:13:43.386Z,931.97
2019-01-09T04:14:43.175Z,931.96
2019-01-09T04:15:43.318Z,931.93
2019-01-09T04:16:43.338Z,931.89
2019-01-09T04:17:43.226Z,931.88
2019-01-09T04:18:43.342Z,931.86
2019-01-09T04:19:43.305Z,931.81
2019-01-09T04:20:43.283Z,931.80
2019-01-09T04:21:43.285Z,931.77
2019-01-09T04:22:43.323Z,931.75
2019-01-09T04:23:43.480Z,931.71
2019-01-09T04:24:43.333Z,931.69
2019-01-09T04:25:43.375Z,931.72
2019-01-09T04:26:43.370Z,931.65
2019-01-09T04:27:43.513Z,931.59
2019-01-09T04:28:43.641Z,931.57
2019-01-09T04:29:43.554Z,931.54
2019-01-09T04:30:43.447Z,931.52
2019-01-09T04:31:43.455Z,931.47
2019-01-09T04:32:43.595Z,931.42
2019-01-09T04:33:43.764Z,931.43
2019-01-09T04:34:43.632Z,931.44
2019-01-09T04:35:43.542Z,931.45
2019-01-09T04:36:51.319Z,931.42
2019-01-09T04:37:43.568Z,931.39
2019-01-09T04:38:43.679Z,931.38
2019-01-09T04:39:43.713Z,931.35
2019-01-09T04:40:43.642Z,931.34
2019-01-09T04:41:43.618Z,931.34
2019-01-09T04:42:43.645Z,931.33
2019-01-09T04:43:43.830Z,931.27
2019-01-09T04:44:43.669Z,931.27
2019-01-09T04:45:43.814Z,931.31
2019-01-09T04:46:43.835Z,931.28
2019-01-09T04:47:43.848Z,931.28
2019-01-09T04:48:43.842Z,931.25
2019-01-09T04:49:43.767Z,931.21
2019-01-09T04:50:43.893Z,931.18
2019-01-09T04:51:43.913Z,931.13
2019-01-09T04:52:43.797Z,931.08
2019-01-09T04:53:43.832Z,931.10
2019-01-09T04:54:43.896Z,931.05
2019-01-09T04:55:43.979Z,930.98
2019-01-09T04:56:44.034Z,930.96
2019-01-09T04:57:44.011Z,930.96
2019-01-09T04:58:43.919Z,930.93
2019-01-09T04:59:44.045Z,930.94
2019-01-09T05:00:43.997Z,930.89
2019-01-09T05:01:44.176Z,930.83
2019-01-09T05:02:43.976Z,930.86
2019-01-09T05:03:44.119Z,930.83
2019-01-09T05:04:44.012Z,930.84
2019-01-09T05:05:44.032Z,930.83
2019-01-09T05:06:44.091Z,930.80
2019-01-09T05:07:44.045Z,930.78
2019-01-09T05:08:44.194Z,930.78
2019-01-09T05:09:44.136Z,930.75
2019-01-09T05:10:44.225Z,930.74
2019-01-09T05:11:44.126Z,930.75
2019-01-09T05:12:44.135Z,930.72
2019-01-09T05:13:44.147Z,930.73
2019-01-09T05:14:44.266Z,930.74
2019-01-09T05:15:44.188Z,930.68
2019-01-09T05:16:44.198Z,930.70
2019-01-09T05:17:44.215Z,930.67
2019-01-09T05:18:44.357Z,930.69
2019-01-09T05:19:44.350Z,930.68
2019-01-09T05:20:44.390Z,930.64
2019-01-09T05:21:44.411Z,930.64
2019-01-09T05:22:44.294Z,930.62
2019-01-09T05:23:44.444Z,930.61
2019-01-09T05:24:45.680Z,930.58
2019-01-09T05:25:44.364Z,930.56
2019-01-09T05:26:44.389Z,930.52
2019-01-09T05:27:44.389Z,930.50
2019-01-09T05:28:44.411Z,930.43
2019-01-09T05:29:44.480Z,930.44
2019-01-09T05:30:44.425Z,930.43
2019-01-09T05:31:44.570Z,930.38
2019-01-09T05:32:44.463Z,930.39
2019-01-09T05:33:44.701Z,930.42
2019-01-09T05:34:44.488Z,930.42
2019-01-09T05:35:44.639Z,930.41
2019-01-09T05:36:44.650Z,930.43
2019-01-09T05:37:44.548Z,930.43
2019-01-09T05:38:44.663Z,930.40
2019-01-09T05:39:44.701Z,930.44
2019-01-09T05:40:44.720Z,930.45
2019-01-09T05:41:44.612Z,930.45
2019-01-09T05:42:44.626Z,930.43
2019-01-09T05:43:44.789Z,930.43
2019-01-09T05:44:44.781Z,930.38
2019-01-09T05:45:44.689Z,930.37
2019-01-09T05:46:44.723Z,930.39
2019-01-09T05:47:44.832Z,930.40
2019-01-09T05:48:44.876Z,930.36
2019-01-09T05:49:44.738Z,930.35
2019-01-09T05:50:44.759Z,930.32
2019-01-09T05:51:44.891Z,930.32
2019-01-09T05:52:44.788Z,930.27
2019-01-09T05:53:44.820Z,930.25
2019-01-09T05:54:44.913Z,930.28
2019-01-09T05:55:44.852Z,930.29
2019-01-09T05:56:44.857Z,930.28
2019-01-09T05:57:44.865Z,930.29
2019-01-09T05:58:44.919Z,930.29
2019-01-09T05:59:45.122Z,930.29
2019-01-09T06:00:44.920Z,930.31
2019-01-09T06:01:44.923Z,930.33
2019-01-09T06:02:45.077Z,930.29
2019-01-09T06:03:44.963Z,930.28
2019-01-09T06:04:45.202Z,930.31
2019-01-09T06:05:45.002Z,930.33
2019-01-09T06:06:45.133Z,930.30
2019-01-09T06:07:45.066Z,930.33
2019-01-09T06:08:45.053Z,930.31
2019-01-09T06:09:45.064Z,930.30
2019-01-09T06:10:45.302Z,930.26
2019-01-09T06:11:45.085Z,930.23
2019-01-09T06:12:45.231Z,930.22
2019-01-09T06:13:45.121Z,930.20
2019-01-09T06:14:45.144Z,930.13
2019-01-09T06:15:45.380Z,930.13
2019-01-09T06:16:45.173Z,930.11
2019-01-09T06:17:45.313Z,930.11
2019-01-09T06:18:45.209Z,930.13
2019-01-09T06:19:45.250Z,930.10
2019-01-09T06:20:45.396Z,930.06
2019-01-09T06:21:45.265Z,930.07
2019-01-09T06:22:45.332Z,930.10
2019-01-09T06:23:45.283Z,930.04
2019-01-09T06:24:45.294Z,930.02
2019-01-09T06:25:45.419Z,930.03
2019-01-09T06:26:45.348Z,930.01
2019-01-09T06:27:45.362Z,929.99
2019-01-09T06:28:45.488Z,930.02
2019-01-09T06:29:45.390Z,929.97
2019-01-09T06:30:45.497Z,929.93
2019-01-09T06:31:45.419Z,929.97
2019-01-09T06:32:45.431Z,929.94
2019-01-09T06:33:45.576Z,929.91
2019-01-09T06:34:45.471Z,929.89
2019-01-09T06:35:45.586Z,929.90
2019-01-09T06:36:45.486Z,929.88
2019-01-09T06:37:45.632Z,929.86
2019-01-09T06:38:45.527Z,929.90
2019-01-09T06:39:45.667Z,929.85
2019-01-09T06:40:45.783Z,929.87
2019-01-09T06:41:45.563Z,929.86
2019-01-09T06:42:45.715Z,929.85
2019-01-09T06:43:45.602Z,929.85
2019-01-09T06:44:45.621Z,929.85
2019-01-09T06:45:45.750Z,929.83
2019-01-09T06:46:45.661Z,929.87
2019-01-09T06:47:45.725Z,929.82
2019-01-09T06:48:45.689Z,929.83
2019-01-09T06:49:45.706Z,929.85
2019-01-09T06:50:45.816Z,929.86
2019-01-09T06:51:45.731Z,929.86
2019-01-09T06:52:45.875Z,929.88
2019-01-09T06:53:45.894Z,929.93
2019-01-09T06:54:45.780Z,929.93
2019-01-09T06:55:45.830Z,930.00
2019-01-09T06:56:45.990Z,929.99
2019-01-09T06:57:45.837Z,929.97
2019-01-09T06:58:45.975Z,930.00
2019-01-09T06:59:45.859Z,930.00
2019-01-09T07:00:45.868Z,930.02
2019-01-09T07:01:45.995Z,930.01
2019-01-09T07:02:45.945Z,930.01
2019-01-09T07:03:46.054Z,930.06
2019-01-09T07:04:46.062Z,930.05
2019-01-09T07:05:46.081Z,930.10
2019-01-09T07:06:46.198Z,930.08
2019-01-09T07:07:46.003Z,930.08
2019-01-09T07:08:46.000Z,930.12
2019-01-09T07:09:46.143Z,930.13
2019-01-09T07:10:46.164Z,930.14
2019-01-09T07:11:46.052Z,930.13
2019-01-09T07:12:46.168Z,930.12
2019-01-09T07:13:46.210Z,930.07
2019-01-09T07:14:46.105Z,930.12
2019-01-09T07:15:46.237Z,930.08
2019-01-09T07:16:46.257Z,930.07
2019-01-09T07:17:46.376Z,930.03
2019-01-09T07:18:46.286Z,930.04
2019-01-09T07:19:46.302Z,930.01
2019-01-09T07:20:46.320Z,930.06
2019-01-09T07:21:46.231Z,930.07
2019-01-09T07:22:46.270Z,930.09
2019-01-09T07:23:46.370Z,930.11
2019-01-09T07:24:46.384Z,930.10
2019-01-09T07:25:46.270Z,930.11
2019-01-09T07:26:46.308Z,930.12
2019-01-09T07:27:46.380Z,930.08
2019-01-09T07:28:46.477Z,930.11
2019-01-09T07:29:46.343Z,930.12
2019-01-09T07:30:46.480Z,930.14
2019-01-09T07:31:46.496Z,930.12
2019-01-09T07:32:46.382Z,930.18
2019-01-09T07:33:46.678Z,930.19
2019-01-09T07:34:46.548Z,930.18
2019-01-09T07:35:46.435Z,930.21
2019-01-09T07:36:46.557Z,930.27
2019-01-09T07:37:46.588Z,930.24
2019-01-09T07:38:46.495Z,930.24
2019-01-09T07:39:46.501Z,930.28
2019-01-09T07:40:46.510Z,930.26
2019-01-09T07:41:46.685Z,930.26
2019-01-09T07:42:46.550Z,930.28
2019-01-09T07:43:46.571Z,930.29
2019-01-09T07:44:46.705Z,930.33
2019-01-09T07:45:46.599Z,930.32
2019-01-09T07:46:46.662Z,930.29
2019-01-09T07:47:46.633Z,930.36
2019-01-09T07:48:46.762Z,930.34
2019-01-09T07:49:46.776Z,930.33
2019-01-09T07:50:46.666Z,930.37
2019-01-09T07:51:46.789Z,930.32
2019-01-09T07:52:46.701Z,930.31
2019-01-09T07:53:46.844Z,930.32
2019-01-09T07:54:46.858Z,930.32
2019-01-09T07:55:46.749Z,930.31
2019-01-09T07:56:47.042Z,930.36
2019-01-09T07:57:46.909Z,930.40
2019-01-09T07:58:46.813Z,930.42
2019-01-09T07:59:46.818Z,930.40
2019-01-09T08:00:46.846Z,930.39
2019-01-09T08:01:47.019Z,930.41
2019-01-09T08:02:46.855Z,930.41
2019-01-09T08:03:46.870Z,930.43
2019-01-09T08:04:47.019Z,930.43
2019-01-09T08:05:47.005Z,930.44
2019-01-09T08:06:47.048Z,930.43
2019-01-09T08:07:53.783Z,930.44
2019-01-09T08:08:47.137Z,930.48
2019-01-09T08:09:47.099Z,930.44
2019-01-09T08:10:47.077Z,930.46
2019-01-09T08:11:46.994Z,930.47
2019-01-09T08:12:47.013Z,930.47
2019-01-09T08:13:47.028Z,930.43
2019-01-09T08:14:47.180Z,930.41
2019-01-09T08:15:47.060Z,930.42
2019-01-09T08:16:47.275Z,930.44
2019-01-09T08:17:47.152Z,930.46
2019-01-09T08:18:48.367Z,930.39
2019-01-09T08:19:47.139Z,930.43
2019-01-09T08:20:47.157Z,930.44
2019-01-09T08:21:47.312Z,930.45
2019-01-09T08:22:47.180Z,930.43
2019-01-09T08:23:47.198Z,930.41
2019-01-09T08:24:47.211Z,930.42
2019-01-09T08:25:47.352Z,930.41
2019-01-09T08:26:47.343Z,930.38
2019-01-09T08:27:47.395Z,930.39
2019-01-09T08:28:47.281Z,930.39
2019-01-09T08:29:47.291Z,930.38
2019-01-09T08:30:47.312Z,930.39
2019-01-09T08:31:47.449Z,930.36
2019-01-09T08:32:47.403Z,930.39
2019-01-09T08:33:47.352Z,930.40
2019-01-09T08:34:47.407Z,930.44
2019-01-09T08:35:47.390Z,930.46
2019-01-09T08:36:47.409Z,930.48
2019-01-09T08:37:47.644Z,930.47
2019-01-09T08:38:47.649Z,930.51
2019-01-09T08:39:47.576Z,930.53
2019-01-09T08:40:47.469Z,930.55
2019-01-09T08:41:47.610Z,930.55
2019-01-09T08:42:47.611Z,930.54
2019-01-09T08:43:47.639Z,930.54
2019-01-09T08:44:47.544Z,930.47
2019-01-09T08:45:47.586Z,930.51
2019-01-09T08:46:47.566Z,930.49
2019-01-09T08:47:47.808Z,930.45
2019-01-09T08:48:47.609Z,930.50
2019-01-09T08:49:47.673Z,930.49
2019-01-09T08:50:47.757Z,930.48
2019-01-09T08:51:47.644Z,930.47
2019-01-09T08:52:47.789Z,930.45
2019-01-09T08:53:47.732Z,930.47
2019-01-09T08:54:47.821Z,930.50
2019-01-09T08:55:47.710Z,930.54
2019-01-09T08:56:47.860Z,930.52
2019-01-09T08:57:47.744Z,930.45
2019-01-09T08:58:47.872Z,930.49
2019-01-09T08:59:47.781Z,930.51
2019-01-09T09:00:47.793Z,930.53
2019-01-09T09:01:47.865Z,930.55
2019-01-09T09:02:47.836Z,930.56
2019-01-09T09:03:48.067Z,930.62
2019-01-09T09:04:47.869Z,930.63
2019-01-09T09:05:47.924Z,930.64
2019-01-09T09:06:47.945Z,930.64
2019-01-09T09:07:48.041Z,930.64
2019-01-09T09:08:48.028Z,930.67
2019-01-09T09:09:47.945Z,930.67
2019-01-09T09:10:47.963Z,930.68
2019-01-09T09:11:48.103Z,930.68
2019-01-09T09:12:47.993Z,930.66
2019-01-09T09:13:48.118Z,930.67
2019-01-09T09:14:48.032Z,930.66
2019-01-09T09:15:48.167Z,930.59
2019-01-09T09:16:48.185Z,930.59
2019-01-09T09:17:48.202Z,930.54
2019-01-09T09:18:48.371Z,930.58
2019-01-09T09:19:48.102Z,930.62
2019-01-09T09:20:48.254Z,930.61
2019-01-09T09:21:48.164Z,930.56
2019-01-09T09:22:48.156Z,930.57
2019-01-09T09:23:48.170Z,930.58
2019-01-09T09:24:48.316Z,930.61
2019-01-09T09:25:48.231Z,930.59
2019-01-09T09:26:48.242Z,930.61
2019-01-09T09:27:48.254Z,930.60
2019-01-09T09:28:48.259Z,930.64
2019-01-09T09:29:48.423Z,930.63
2019-01-09T09:30:48.309Z,930.61
2019-01-09T09:31:48.315Z,930.67
2019-01-09T09:32:48.338Z,930.61
2019-01-09T09:33:48.352Z,930.65
2019-01-09T09:34:48.469Z,930.67
2019-01-09T09:35:48.388Z,930.66
2019-01-09T09:36:48.531Z,930.67
2019-01-09T09:37:48.557Z,930.69
2019-01-09T09:38:48.450Z,930.72
2019-01-09T09:39:48.610Z,930.75
2019-01-09T09:40:48.706Z,930.78
2019-01-09T09:41:48.511Z,930.78
2019-01-09T09:42:48.546Z,930.80
2019-01-09T09:43:48.541Z,930.80
2019-01-09T09:44:48.660Z,930.80
2019-01-09T09:45:48.703Z,930.80
2019-01-09T09:46:48.593Z,930.83
2019-01-09T09:47:48.616Z,930.88
2019-01-09T09:48:48.647Z,930.86
2019-01-09T09:49:48.743Z,930.91
2019-01-09T09:50:48.793Z,930.88
2019-01-09T09:51:48.702Z,930.88
2019-01-09T09:52:48.722Z,930.89
2019-01-09T09:53:48.748Z,930.89
2019-01-09T09:54:48.793Z,930.86
2019-01-09T09:55:48.768Z,930.86
2019-01-09T09:56:48.783Z,930.87
2019-01-09T09:57:48.800Z,930.90
2019-01-09T09:58:48.819Z,930.89
2019-01-09T09:59:49.063Z,930.93
2019-01-09T10:00:48.982Z,930.94
2019-01-09T10:01:49.002Z,930.94
2019-01-09T10:02:48.894Z,930.99
2019-01-09T10:03:48.918Z,930.98
2019-01-09T10:04:48.978Z,931.01
2019-01-09T10:05:48.974Z,930.99
2019-01-09T10:06:48.984Z,930.97
2019-01-09T10:07:49.011Z,930.98
2019-01-09T10:08:49.058Z,931.01
2019-01-09T10:09:49.175Z,931.01
2019-01-09T10:10:49.053Z,931.03
2019-01-09T10:11:49.190Z,931.06
2019-01-09T10:12:49.210Z,931.00
2019-01-09T10:13:49.228Z,931.06
2019-01-09T10:14:49.346Z,931.12
2019-01-09T10:15:49.133Z,931.10
2019-01-09T10:16:49.159Z,931.14
2019-01-09T10:17:49.197Z,931.16
2019-01-09T10:18:49.219Z,931.14
2019-01-09T10:19:49.316Z,931.18
2019-01-09T10:20:49.239Z,931.17
2019-01-09T10:21:49.249Z,931.14
2019-01-09T10:22:51.491Z,931.19
2019-01-09T10:23:49.287Z,931.20
2019-01-09T10:24:49.539Z,931.20
2019-01-09T10:25:49.329Z,931.21
2019-01-09T10:26:49.360Z,931.20
2019-01-09T10:27:49.407Z,931.23
2019-01-09T10:28:49.515Z,931.25
2019-01-09T10:29:49.460Z,931.35
2019-01-09T10:30:49.494Z,931.43
2019-01-09T10:31:49.575Z,931.37
2019-01-09T10:32:49.560Z,931.38
2019-01-09T10:33:49.505Z,931.37
2019-01-09T10:34:49.519Z,931.40
2019-01-09T10:35:49.655Z,931.35
2019-01-09T10:36:49.556Z,931.43
2019-01-09T10:37:49.745Z,931.49
2019-01-09T10:38:49.716Z,931.54
2019-01-09T10:39:49.737Z,931.58
2019-01-09T10:40:49.752Z,931.63
2019-01-09T10:41:49.777Z,931.61
2019-01-09T10:42:49.797Z,931.59
2019-01-09T10:43:49.736Z,931.59
2019-01-09T10:44:49.722Z,931.63
2019-01-09T10:45:49.784Z,931.61
2019-01-09T10:46:49.758Z,931.61
2019-01-09T10:47:49.777Z,931.63
2019-01-09T10:48:49.808Z,931.58
2019-01-09T10:49:49.811Z,931.57
2019-01-09T10:50:50.015Z,931.50
2019-01-09T10:51:49.855Z,931.52
2019-01-09T10:52:49.875Z,931.53
2019-01-09T10:53:50.127Z,931.52
2019-01-09T10:54:50.049Z,931.54
2019-01-09T10:55:49.950Z,931.50
2019-01-09T10:56:50.095Z,931.49
2019-01-09T10:57:50.006Z,931.52
2019-01-09T10:58:50.198Z,931.52
2019-01-09T10:59:50.032Z,931.51
2019-01-09T11:00:50.192Z,931.52
2019-01-09T11:01:50.251Z,931.40
2019-01-09T11:02:50.118Z,931.40
2019-01-09T11:03:50.262Z,931.50
2019-01-09T11:04:50.168Z,931.56
2019-01-09T11:05:50.189Z,931.59
2019-01-09T11:06:50.325Z,931.56
2019-01-09T11:07:50.232Z,931.58
2019-01-09T11:08:50.257Z,931.57
2019-01-09T11:09:50.407Z,931.59
2019-01-09T11:10:50.430Z,931.58
2019-01-09T11:11:50.481Z,931.56
2019-01-09T11:12:50.350Z,931.58
2019-01-09T11:13:50.504Z,931.57
2019-01-09T11:14:50.391Z,931.55
2019-01-09T11:15:50.444Z,931.56
2019-01-09T11:16:50.590Z,931.62
2019-01-09T11:17:50.480Z,931.63
2019-01-09T11:18:50.546Z,931.63
2019-01-09T11:19:50.650Z,931.66
2019-01-09T11:20:50.550Z,931.64
2019-01-09T11:21:50.853Z,931.61
2019-01-09T11:22:50.609Z,931.52
2019-01-09T11:23:50.634Z,931.47
2019-01-09T11:24:50.653Z,931.46
2019-01-09T11:25:50.810Z,931.45
2019-01-09T11:26:50.749Z,931.61
2019-01-09T11:27:50.855Z,931.60
2019-01-09T11:28:50.761Z,931.64
2019-01-09T11:29:50.908Z,931.59
2019-01-09T11:30:50.809Z,931.55
2019-01-09T11:31:50.940Z,931.57
2019-01-09T11:32:50.978Z,931.58
2019-01-09T11:33:51.006Z,931.61
2019-01-09T11:34:51.029Z,931.59
2019-01-09T11:35:50.937Z,931.63
2019-01-09T11:36:51.098Z,931.61
2019-01-09T11:37:53.044Z,931.62
2019-01-09T11:38:55.633Z,931.64
2019-01-09T11:39:51.037Z,931.58
2019-01-09T11:40:51.186Z,931.60
2019-01-09T11:41:51.356Z,931.58
2019-01-09T11:42:51.116Z,931.58
2019-01-09T11:43:51.186Z,931.66
2019-01-09T11:44:51.290Z,931.65
2019-01-09T11:45:51.191Z,931.66
2019-01-09T11:46:51.263Z,931.71
2019-01-09T11:47:51.245Z,931.80
2019-01-09T11:48:51.401Z,932.08
2019-01-09T11:49:51.308Z,932.29
2019-01-09T11:50:51.336Z,932.03
2019-01-09T11:51:51.502Z,931.74
2019-01-09T11:52:51.390Z,931.59
2019-01-09T11:53:51.425Z,931.55
2019-01-09T11:54:51.557Z,931.52
2019-01-09T11:55:51.459Z,931.50
2019-01-09T11:56:51.619Z,931.54
2019-01-09T11:57:51.523Z,931.49
2019-01-09T11:58:51.562Z,931.51
2019-01-09T11:59:51.573Z,931.53
2019-01-09T12:00:51.594Z,931.59
2019-01-09T12:01:51.771Z,931.77
2019-01-09T12:02:51.645Z,932.07
2019-01-09T12:03:51.690Z,932.29
2019-01-09T12:04:51.713Z,932.33
2019-01-09T12:05:51.741Z,932.45
2019-01-09T12:06:51.870Z,932.31
2019-01-09T12:07:51.792Z,931.97
2019-01-09T12:08:51.828Z,931.59
2019-01-09T12:09:51.894Z,931.44
2019-01-09T12:10:51.908Z,931.44
2019-01-09T12:11:52.116Z,930.98
2019-01-09T12:12:51.926Z,931.38
2019-01-09T12:13:53.297Z,931.37
2019-01-09T12:14:52.103Z,931.38
2019-01-09T12:15:52.016Z,931.32
2019-01-09T12:16:52.211Z,931.33
2019-01-09T12:17:52.061Z,931.35
2019-01-09T12:18:52.212Z,931.26
2019-01-09T12:19:52.115Z,931.32
2019-01-09T12:20:52.169Z,931.39
2019-01-09T12:21:52.227Z,931.74
2019-01-09T12:22:52.200Z,932.06
2019-01-09T12:23:52.353Z,932.20
2019-01-09T12:24:52.258Z,932.23
2019-01-09T12:25:52.303Z,932.23
2019-01-09T12:26:52.324Z,932.21
2019-01-09T12:27:52.460Z,932.03
2019-01-09T12:28:53.762Z,931.61